createdAt,value
2018-08-25T00:00:57.747Z,66.33
2018-08-25T00:01:57.727Z,66.36
2018-08-25T00:02:57.721Z,66.52
2018-08-25T00:03:57.728Z,66.80
2018-08-25T00:04:57.736Z,65.69
2018-08-25T00:05:57.728Z,66.23
2018-08-25T00:06:57.733Z,67.38
2018-08-25T00:07:57.739Z,67.09
2018-08-25T00:08:57.736Z,67.09
2018-08-25T00:09:57.768Z,66.80
2018-08-25T00:10:57.736Z,67.00
2018-08-25T00:11:57.732Z,67.09
2018-08-25T00:12:57.728Z,67.09
2018-08-25T00:13:57.738Z,67.13
2018-08-25T00:14:57.739Z,66.42
2018-08-25T00:15:57.740Z,66.33
2018-08-25T00:16:57.737Z,67.47
2018-08-25T00:17:57.735Z,67.29
2018-08-25T00:18:57.735Z,66.84
2018-08-25T00:19:57.733Z,66.55
2018-08-25T00:20:57.739Z,66.52
2018-08-25T00:21:57.787Z,66.90
2018-08-25T00:22:57.745Z,66.80
2018-08-25T00:23:57.745Z,66.46
2018-08-25T00:24:57.748Z,65.78
2018-08-25T00:25:57.787Z,66.61
2018-08-25T00:26:57.751Z,67.09
2018-08-25T00:28:06.392Z,67.29
2018-08-25T00:29:51.167Z,68.44
2018-08-25T00:30:51.142Z,67.76
2018-08-25T00:31:51.140Z,67.96
2018-08-25T00:32:51.145Z,67.76
2018-08-25T00:33:51.143Z,67.90
2018-08-25T00:34:59.844Z,68.28
2018-08-25T00:36:44.547Z,69.40
2018-08-25T00:37:44.538Z,68.18
2018-08-25T00:38:44.534Z,68.66
2018-08-25T00:39:44.539Z,69.59
2018-08-25T00:40:44.546Z,69.93
2018-08-25T00:41:44.538Z,70.55
2018-08-25T00:42:44.542Z,70.36
2018-08-25T00:43:44.550Z,70.17
2018-08-25T00:44:44.534Z,69.87
2018-08-25T00:45:44.547Z,69.59
2018-08-25T00:46:44.541Z,70.07
2018-08-25T00:47:44.604Z,69.87
2018-08-25T00:48:44.546Z,69.97
2018-08-25T00:49:44.544Z,69.14
2018-08-25T00:50:44.536Z,69.68
2018-08-25T00:51:44.549Z,69.97
2018-08-25T00:52:44.542Z,70.26
2018-08-25T00:53:44.550Z,69.87
2018-08-25T00:54:44.543Z,69.72
2018-08-25T00:55:44.546Z,69.62
2018-08-25T00:56:44.549Z,69.78
2018-08-25T00:57:44.544Z,70.17
2018-08-25T00:58:44.557Z,69.49
2018-08-25T00:59:44.557Z,69.87
2018-08-25T01:00:44.548Z,69.49
2018-08-25T01:01:44.552Z,70.64
2018-08-25T01:02:44.552Z,70.45
2018-08-25T01:03:44.559Z,69.78
2018-08-25T01:04:44.556Z,69.11
2018-08-25T01:05:44.561Z,69.72
2018-08-25T01:06:44.574Z,69.14
2018-08-25T01:07:44.552Z,68.37
2018-08-25T01:08:44.560Z,68.28
2018-08-25T01:09:44.559Z,68.57
2018-08-25T01:10:44.571Z,69.14
2018-08-25T01:11:44.559Z,69.11
2018-08-25T01:12:44.583Z,69.34
2018-08-25T01:13:44.560Z,69.24
2018-08-25T01:14:44.563Z,68.57
2018-08-25T01:15:44.644Z,69.40
2018-08-25T01:16:44.561Z,70.64
2018-08-25T01:17:44.571Z,71.41
2018-08-25T01:18:44.566Z,70.74
2018-08-25T01:19:44.579Z,71.12
2018-08-25T01:20:44.573Z,70.36
2018-08-25T01:21:44.591Z,70.55
2018-08-25T01:22:44.573Z,71.31
2018-08-25T01:23:44.590Z,71.41
2018-08-25T01:24:44.571Z,72.28
2018-08-25T01:25:44.570Z,71.41
2018-08-25T01:26:44.578Z,71.98
2018-08-25T01:27:44.579Z,72.08
2018-08-25T01:28:44.578Z,72.72
2018-08-25T01:29:44.580Z,72.37
2018-08-25T01:30:44.590Z,72.18
2018-08-25T01:31:44.575Z,70.84
2018-08-25T01:32:44.584Z,71.31
2018-08-25T01:33:44.580Z,70.87
2018-08-25T01:34:44.597Z,70.84
2018-08-25T01:35:44.581Z,72.08
2018-08-25T01:36:44.580Z,71.61
2018-08-25T01:37:44.585Z,71.70
2018-08-25T01:38:44.588Z,70.58
2018-08-25T01:39:44.590Z,71.03
2018-08-25T01:40:44.592Z,71.31
2018-08-25T01:41:44.592Z,71.41
2018-08-25T01:42:44.595Z,72.08
2018-08-25T01:43:44.591Z,74.26
2018-08-25T01:44:44.592Z,73.97
2018-08-25T01:45:44.589Z,74.06
2018-08-25T01:46:44.586Z,74.35
2018-08-25T01:47:44.591Z,73.97
2018-08-25T01:48:44.596Z,73.87
2018-08-25T01:49:44.593Z,73.43
2018-08-25T01:50:44.597Z,73.81
2018-08-25T01:51:44.599Z,73.43
2018-08-25T01:52:44.591Z,73.24
2018-08-25T01:53:44.596Z,74.06
2018-08-25T01:54:44.598Z,73.04
2018-08-25T01:55:44.602Z,73.04
2018-08-25T01:56:44.631Z,73.43
2018-08-25T01:57:44.612Z,73.30
2018-08-25T01:58:44.609Z,73.87
2018-08-25T01:59:44.621Z,73.39
2018-08-25T02:00:44.620Z,71.89
2018-08-25T02:01:44.610Z,72.37
2018-08-25T02:02:44.644Z,72.08
2018-08-25T02:03:44.608Z,71.98
2018-08-25T02:04:44.610Z,72.47
2018-08-25T02:05:44.618Z,72.81
2018-08-25T02:06:44.605Z,73.20
2018-08-25T02:07:44.624Z,73.62
2018-08-25T02:08:44.609Z,72.18
2018-08-25T02:09:44.619Z,71.89
2018-08-25T02:10:44.608Z,71.06
2018-08-25T02:11:44.606Z,71.22
2018-08-25T02:12:44.621Z,71.51
2018-08-25T02:13:44.610Z,70.93
2018-08-25T02:14:44.617Z,71.61
2018-08-25T02:15:44.619Z,72.24
2018-08-25T02:16:44.613Z,72.72
2018-08-25T02:17:44.621Z,71.95
2018-08-25T02:18:44.619Z,71.70
2018-08-25T02:19:44.635Z,70.36
2018-08-25T02:20:44.632Z,70.45
2018-08-25T02:21:44.620Z,70.45
2018-08-25T02:22:44.622Z,71.12
2018-08-25T02:23:44.638Z,69.87
2018-08-25T02:24:44.624Z,70.36
2018-08-25T02:25:44.627Z,70.32
2018-08-25T02:26:44.622Z,70.99
2018-08-25T02:27:44.628Z,71.47
2018-08-25T02:28:44.627Z,72.14
2018-08-25T02:29:44.621Z,72.33
2018-08-25T02:30:44.640Z,71.95
2018-08-25T02:31:44.631Z,72.53
2018-08-25T02:32:44.626Z,72.43
2018-08-25T02:33:44.628Z,71.86
2018-08-25T02:34:44.623Z,71.57
2018-08-25T02:35:44.638Z,71.66
2018-08-25T02:36:44.632Z,72.43
2018-08-25T02:37:44.637Z,71.76
2018-08-25T02:38:44.667Z,72.24
2018-08-25T02:39:44.632Z,72.05
2018-08-25T02:40:44.635Z,70.93
2018-08-25T02:41:44.636Z,70.74
2018-08-25T02:42:44.632Z,70.93
2018-08-25T02:43:44.633Z,71.98
2018-08-25T02:44:44.648Z,72.72
2018-08-25T02:45:44.636Z,73.58
2018-08-25T02:46:44.646Z,74.44
2018-08-25T02:47:44.669Z,73.49
2018-08-25T02:48:44.640Z,73.00
2018-08-25T02:49:44.637Z,72.75
2018-08-25T02:50:44.640Z,74.16
2018-08-25T02:51:44.641Z,73.49
2018-08-25T02:52:44.645Z,74.35
2018-08-25T02:53:44.644Z,74.93
2018-08-25T02:54:44.641Z,74.44
2018-08-25T02:55:44.702Z,73.24
2018-08-25T02:56:44.664Z,73.20
2018-08-25T02:57:44.643Z,71.61
2018-08-25T02:58:44.653Z,73.20
2018-08-25T02:59:44.649Z,72.95
2018-08-25T03:15:27.677Z,75.95
2018-08-25T03:16:27.665Z,76.90
2018-08-25T03:17:27.677Z,76.07
2018-08-25T03:18:27.656Z,75.60
2018-08-25T03:19:27.651Z,75.40
2018-08-25T03:20:27.650Z,75.89
2018-08-25T03:21:27.653Z,75.70
2018-08-25T03:22:27.644Z,74.73
2018-08-25T03:23:27.651Z,75.21
2018-08-25T03:24:27.641Z,76.46
2018-08-25T03:25:27.639Z,77.00
2018-08-25T03:26:27.635Z,77.09
2018-08-25T03:27:27.638Z,76.42
2018-08-25T03:28:27.632Z,77.48
2018-08-25T03:29:27.634Z,77.38
2018-08-25T03:30:27.641Z,77.38
2018-08-25T03:31:27.665Z,76.56
2018-08-25T03:32:27.631Z,77.48
2018-08-25T03:33:27.631Z,77.19
2018-08-25T03:34:27.635Z,77.19
2018-08-25T03:35:27.635Z,77.61
2018-08-25T03:36:27.638Z,76.75
2018-08-25T03:37:27.635Z,77.58
2018-08-25T03:38:27.627Z,78.34
2018-08-25T03:39:27.636Z,78.82
2018-08-25T03:40:27.634Z,78.34
2018-08-25T03:41:27.630Z,78.72
2018-08-25T03:42:27.632Z,78.88
2018-08-25T03:43:27.631Z,78.44
2018-08-25T03:44:27.637Z,75.98
2018-08-25T03:45:27.642Z,76.65
2018-08-25T03:46:27.635Z,76.46
2018-08-25T03:47:27.632Z,77.42
2018-08-25T03:48:27.637Z,77.23
2018-08-25T03:49:27.639Z,77.86
2018-08-25T03:50:27.631Z,78.15
2018-08-25T03:51:27.655Z,77.61
2018-08-25T03:52:27.671Z,78.15
2018-08-25T03:53:27.673Z,77.61
2018-08-25T03:54:27.655Z,78.82
2018-08-25T03:55:27.658Z,79.11
2018-08-25T03:56:27.647Z,78.15
2018-08-25T03:57:27.633Z,78.15
2018-08-25T03:58:27.641Z,78.72
2018-08-25T03:59:27.648Z,77.61
2018-08-25T04:00:27.657Z,77.61
2018-08-25T04:01:27.713Z,77.04
2018-08-25T04:02:27.645Z,77.95
2018-08-25T04:03:27.640Z,78.44
2018-08-25T04:04:27.648Z,78.82
2018-08-25T04:05:27.639Z,78.92
2018-08-25T04:06:27.656Z,79.78
2018-08-25T04:07:27.648Z,78.92
2018-08-25T04:08:27.638Z,77.61
2018-08-25T04:09:27.639Z,77.61
2018-08-25T04:10:27.643Z,77.13
2018-08-25T04:11:27.637Z,77.42
2018-08-25T04:12:27.644Z,78.00
2018-08-25T04:13:27.646Z,78.34
2018-08-25T04:14:27.645Z,78.72
2018-08-25T04:15:27.643Z,78.63
2018-08-25T04:16:27.642Z,78.47
2018-08-25T04:17:27.638Z,79.30
2018-08-25T04:18:27.648Z,78.34
2018-08-25T04:19:27.646Z,77.51
2018-08-25T04:20:27.650Z,78.25
2018-08-25T04:21:27.647Z,78.92
2018-08-25T04:22:27.653Z,79.11
2018-08-25T04:23:27.642Z,78.92
2018-08-25T04:24:27.663Z,78.19
2018-08-25T04:25:27.663Z,77.42
2018-08-25T04:26:27.649Z,77.51
2018-08-25T04:27:27.649Z,77.13
2018-08-25T04:28:27.647Z,78.25
2018-08-25T04:29:27.650Z,77.90
2018-08-25T04:30:27.658Z,77.13
2018-08-25T04:31:27.645Z,77.33
2018-08-25T04:32:27.664Z,77.23
2018-08-25T04:33:27.699Z,78.00
2018-08-25T04:34:27.648Z,78.05
2018-08-25T04:35:27.650Z,77.61
2018-08-25T04:36:27.649Z,77.80
2018-08-25T04:37:27.650Z,78.05
2018-08-25T04:38:27.661Z,78.25
2018-08-25T04:39:27.647Z,78.25
2018-08-25T04:40:27.657Z,77.61
2018-08-25T04:41:27.648Z,77.04
2018-08-25T04:42:27.663Z,77.61
2018-08-25T04:43:27.653Z,77.86
2018-08-25T04:44:27.674Z,77.42
2018-08-25T04:45:27.652Z,76.46
2018-08-25T04:46:27.651Z,76.75
2018-08-25T04:47:27.660Z,77.51
2018-08-25T04:48:27.653Z,77.86
2018-08-25T04:49:27.655Z,78.05
2018-08-25T04:50:27.650Z,78.00
2018-08-25T04:51:27.658Z,78.25
2018-08-25T04:52:27.667Z,78.38
2018-08-25T04:53:27.656Z,78.19
2018-08-25T04:54:27.663Z,77.23
2018-08-25T04:55:27.664Z,77.61
2018-08-25T04:56:27.675Z,77.13
2018-08-25T04:57:27.661Z,77.61
2018-08-25T04:58:27.659Z,76.84
2018-08-25T04:59:27.667Z,78.34
2018-08-25T05:00:27.654Z,78.86
2018-08-25T05:01:27.757Z,78.05
2018-08-25T05:02:27.676Z,78.25
2018-08-25T05:03:27.656Z,78.63
2018-08-25T05:04:27.664Z,76.84
2018-08-25T05:05:27.660Z,77.23
2018-08-25T05:06:27.658Z,78.53
2018-08-25T05:07:27.656Z,78.44
2018-08-25T05:08:27.665Z,78.53
2018-08-25T05:09:27.674Z,78.15
2018-08-25T05:10:27.681Z,77.61
2018-08-25T05:11:27.657Z,76.94
2018-08-25T05:12:27.662Z,76.17
2018-08-25T05:13:27.678Z,76.27
2018-08-25T05:14:27.664Z,76.94
2018-08-25T05:15:27.685Z,77.51
2018-08-25T05:16:27.662Z,77.13
2018-08-25T05:17:27.661Z,77.23
2018-08-25T05:18:27.666Z,77.29
2018-08-25T05:19:27.673Z,77.19
2018-08-25T05:20:27.669Z,77.33
2018-08-25T05:21:27.665Z,77.58
2018-08-25T05:22:27.666Z,77.51
2018-08-25T05:23:27.666Z,76.94
2018-08-25T05:24:27.665Z,76.46
2018-08-25T05:25:27.674Z,76.65
2018-08-25T05:26:27.669Z,76.07
2018-08-25T05:27:27.670Z,75.79
2018-08-25T05:28:27.678Z,76.46
2018-08-25T05:29:27.670Z,76.56
2018-08-25T05:30:27.671Z,76.27
2018-08-25T05:31:27.681Z,75.35
2018-08-25T05:32:27.677Z,75.79
2018-08-25T05:33:27.671Z,76.07
2018-08-25T05:34:27.694Z,76.56
2018-08-25T05:35:27.674Z,77.13
2018-08-25T05:36:27.896Z,77.04
2018-08-25T05:37:27.676Z,76.46
2018-08-25T05:38:27.738Z,75.40
2018-08-25T05:39:27.723Z,74.87
2018-08-25T05:40:27.710Z,75.79
2018-08-25T05:41:27.676Z,75.98
2018-08-25T05:42:27.681Z,76.07
2018-08-25T05:43:27.683Z,75.70
2018-08-25T05:44:27.743Z,75.98
2018-08-25T05:45:27.770Z,75.79
2018-08-25T05:46:27.694Z,75.79
2018-08-25T05:47:27.679Z,75.40
2018-08-25T05:48:27.678Z,75.89
2018-08-25T05:49:27.686Z,75.98
2018-08-25T05:50:27.681Z,75.79
2018-08-25T05:51:27.685Z,75.79
2018-08-25T05:52:27.687Z,75.31
2018-08-25T05:53:27.683Z,75.40
2018-08-25T05:54:27.681Z,76.07
2018-08-25T05:55:27.682Z,75.31
2018-08-25T05:56:27.687Z,75.50
2018-08-25T05:57:27.783Z,75.70
2018-08-25T05:58:27.684Z,75.50
2018-08-25T05:59:27.681Z,75.89
2018-08-25T06:00:27.687Z,76.07
2018-08-25T06:01:27.685Z,75.79
2018-08-25T06:02:27.684Z,75.60
2018-08-25T06:03:27.817Z,75.89
2018-08-25T06:04:27.698Z,75.70
2018-08-25T06:05:27.709Z,75.21
2018-08-25T06:06:27.751Z,75.70
2018-08-25T06:07:27.694Z,75.12
2018-08-25T06:08:27.689Z,75.70
2018-08-25T06:09:27.690Z,75.79
2018-08-25T06:10:27.692Z,75.40
2018-08-25T06:11:27.689Z,75.70
2018-08-25T06:12:27.689Z,75.40
2018-08-25T06:13:27.749Z,75.73
2018-08-25T06:14:27.691Z,75.70
2018-08-25T06:15:27.688Z,76.37
2018-08-25T06:16:27.692Z,75.60
2018-08-25T06:17:27.691Z,75.21
2018-08-25T06:18:27.686Z,76.07
2018-08-25T06:19:27.695Z,76.27
2018-08-25T06:20:27.826Z,76.27
2018-08-25T06:21:27.733Z,75.70
2018-08-25T06:22:27.727Z,75.89
2018-08-25T06:23:27.692Z,76.07
2018-08-25T06:24:27.724Z,75.89
2018-08-25T06:25:27.698Z,76.27
2018-08-25T06:26:27.737Z,76.94
2018-08-25T06:27:27.693Z,76.84
2018-08-25T06:28:27.780Z,75.89
2018-08-25T06:29:27.706Z,75.98
2018-08-25T06:30:27.721Z,75.70
2018-08-25T06:31:27.708Z,76.07
2018-08-25T06:32:27.730Z,76.75
2018-08-25T06:33:27.734Z,76.65
2018-08-25T06:34:27.732Z,76.56
2018-08-25T06:35:27.779Z,77.42
2018-08-25T06:36:27.781Z,76.65
2018-08-25T06:37:27.807Z,76.84
2018-08-25T06:38:27.750Z,77.04
2018-08-25T06:39:27.735Z,77.90
2018-08-25T06:40:27.763Z,77.23
2018-08-25T06:41:27.724Z,77.71
2018-08-25T06:42:27.763Z,77.90
2018-08-25T06:43:27.701Z,78.77
2018-08-25T06:44:27.725Z,78.47
2018-08-25T06:45:27.745Z,79.05
2018-08-25T06:46:27.738Z,78.86
2018-08-25T06:47:27.740Z,78.57
2018-08-25T06:48:28.344Z,78.77
2018-08-25T06:49:27.749Z,78.96
2018-08-25T06:50:27.803Z,79.24
2018-08-25T06:51:27.724Z,78.77
2018-08-25T06:52:27.747Z,78.47
2018-08-25T06:53:27.762Z,78.28
2018-08-25T06:54:27.713Z,78.47
2018-08-25T06:55:27.771Z,79.44
2018-08-25T06:56:27.868Z,79.53
2018-08-25T06:57:27.795Z,79.53
2018-08-25T06:58:27.707Z,78.96
2018-08-25T06:59:27.799Z,78.77
2018-08-25T07:00:27.780Z,79.34
2018-08-25T07:01:27.730Z,79.63
2018-08-25T07:02:27.806Z,79.63
2018-08-25T07:03:27.747Z,79.34
2018-08-25T07:04:27.758Z,79.34
2018-08-25T07:05:27.932Z,80.97
2018-08-25T07:06:27.770Z,80.68
2018-08-25T07:07:27.826Z,80.68
2018-08-25T07:08:27.725Z,79.72
2018-08-25T07:09:27.731Z,78.90
2018-08-25T07:10:27.737Z,78.80
2018-08-25T07:11:27.877Z,78.99
2018-08-25T07:12:27.890Z,78.13
2018-08-25T07:13:27.712Z,79.44
2018-08-25T07:14:27.719Z,81.35
2018-08-25T07:15:27.722Z,80.11
2018-08-25T07:16:27.713Z,79.72
2018-08-25T07:17:27.713Z,79.67
2018-08-25T07:18:27.717Z,78.90
2018-08-25T07:19:27.741Z,79.72
2018-08-25T07:20:27.729Z,79.44
2018-08-25T07:21:27.737Z,81.35
2018-08-25T07:22:27.775Z,80.78
2018-08-25T07:23:27.732Z,79.91
2018-08-25T07:24:27.720Z,80.68
2018-08-25T07:25:27.778Z,80.49
2018-08-25T07:26:27.795Z,79.82
2018-08-25T07:27:27.725Z,79.91
2018-08-25T07:28:27.730Z,80.40
2018-08-25T07:29:27.751Z,80.87
2018-08-25T07:30:27.729Z,80.87
2018-08-25T07:31:27.733Z,82.18
2018-08-25T07:32:27.758Z,82.31
2018-08-25T07:33:27.784Z,81.74
2018-08-25T07:34:27.744Z,82.03
2018-08-25T07:35:27.732Z,82.31
2018-08-25T07:36:27.730Z,81.84
2018-08-25T07:37:27.750Z,80.87
2018-08-25T07:38:27.823Z,80.20
2018-08-25T07:39:27.747Z,80.58
2018-08-25T07:40:27.771Z,81.74
2018-08-25T07:41:27.726Z,82.21
2018-08-25T07:42:27.734Z,81.93
2018-08-25T07:43:27.781Z,81.26
2018-08-25T07:44:27.733Z,81.54
2018-08-25T07:45:27.762Z,82.12
2018-08-25T07:46:27.778Z,82.03
2018-08-25T07:47:27.832Z,81.45
2018-08-25T07:48:27.819Z,80.78
2018-08-25T07:49:27.800Z,80.40
2018-08-25T07:50:27.732Z,79.53
2018-08-25T07:51:27.802Z,79.91
2018-08-25T07:52:27.771Z,80.01
2018-08-25T07:53:27.729Z,80.49
2018-08-25T07:54:27.737Z,79.57
2018-08-25T07:55:27.732Z,80.11
2018-08-25T07:56:27.735Z,79.72
2018-08-25T07:57:27.738Z,79.72
2018-08-25T07:58:27.773Z,80.49
2018-08-25T07:59:27.739Z,80.30
2018-08-25T08:00:27.741Z,79.63
2018-08-25T08:01:27.761Z,79.91
2018-08-25T08:02:27.734Z,79.44
2018-08-25T08:03:27.738Z,80.30
2018-08-25T08:04:27.738Z,80.20
2018-08-25T08:05:27.745Z,79.44
2018-08-25T08:06:27.741Z,79.14
2018-08-25T08:07:27.742Z,78.82
2018-08-25T08:08:27.745Z,78.67
2018-08-25T08:09:27.746Z,77.90
2018-08-25T08:10:27.747Z,78.53
2018-08-25T08:11:27.739Z,79.59
2018-08-25T08:12:27.739Z,80.45
2018-08-25T08:13:27.746Z,79.88
2018-08-25T08:14:27.742Z,80.26
2018-08-25T08:15:27.746Z,80.26
2018-08-25T08:16:27.741Z,80.93
2018-08-25T08:17:27.743Z,81.31
2018-08-25T08:18:27.745Z,80.26
2018-08-25T08:19:27.743Z,80.64
2018-08-25T08:20:27.740Z,81.51
2018-08-25T08:21:27.743Z,81.31
2018-08-25T08:22:27.748Z,81.60
2018-08-25T08:23:27.740Z,80.74
2018-08-25T08:24:27.756Z,80.74
2018-08-25T08:25:27.749Z,80.45
2018-08-25T08:26:27.753Z,80.83
2018-08-25T08:27:27.746Z,79.82
2018-08-25T08:28:27.793Z,78.96
2018-08-25T08:29:27.745Z,80.45
2018-08-25T08:30:27.749Z,81.46
2018-08-25T08:31:27.741Z,81.51
2018-08-25T08:32:27.744Z,81.51
2018-08-25T08:33:27.753Z,82.23
2018-08-25T08:34:27.760Z,81.02
2018-08-25T08:35:27.760Z,81.60
2018-08-25T08:36:27.746Z,80.64
2018-08-25T08:37:27.752Z,79.72
2018-08-25T08:38:27.757Z,79.82
2018-08-25T08:39:27.795Z,79.82
2018-08-25T08:40:27.744Z,80.20
2018-08-25T08:41:27.751Z,80.78
2018-08-25T08:42:27.879Z,81.98
2018-08-25T08:43:27.763Z,82.08
2018-08-25T08:44:27.747Z,82.27
2018-08-25T08:45:27.753Z,83.09
2018-08-25T08:46:27.792Z,81.79
2018-08-25T08:47:27.847Z,81.79
2018-08-25T08:48:27.755Z,83.00
2018-08-25T08:49:27.755Z,82.90
2018-08-25T08:50:27.806Z,82.75
2018-08-25T08:51:27.759Z,83.04
2018-08-25T08:52:27.753Z,82.27
2018-08-25T08:53:27.752Z,83.09
2018-08-25T08:54:27.758Z,83.86
2018-08-25T08:55:27.757Z,83.95
2018-08-25T08:56:27.745Z,83.38
2018-08-25T08:57:27.752Z,83.86
2018-08-25T08:58:27.749Z,82.85
2018-08-25T08:59:27.747Z,82.46
2018-08-25T09:00:27.748Z,82.27
2018-08-25T09:01:27.751Z,82.56
2018-08-25T09:02:27.754Z,81.79
2018-08-25T09:03:27.899Z,82.56
2018-08-25T09:04:27.758Z,81.89
2018-08-25T09:05:27.747Z,82.18
2018-08-25T09:06:27.746Z,81.89
2018-08-25T09:07:27.748Z,83.14
2018-08-25T09:08:27.759Z,83.71
2018-08-25T09:09:27.780Z,83.61
2018-08-25T09:10:27.832Z,83.71
2018-08-25T09:11:27.861Z,83.52
2018-08-25T09:12:27.746Z,83.67
2018-08-25T09:13:27.746Z,84.34
2018-08-25T09:14:27.748Z,85.01
2018-08-25T09:15:27.768Z,84.91
2018-08-25T09:16:27.752Z,84.19
2018-08-25T09:17:27.756Z,83.91
2018-08-25T09:18:27.753Z,83.42
2018-08-25T09:19:27.775Z,81.93
2018-08-25T09:20:27.774Z,83.23
2018-08-25T09:21:27.751Z,83.91
2018-08-25T09:22:27.762Z,84.48
2018-08-25T09:23:27.766Z,83.56
2018-08-25T09:24:27.752Z,84.38
2018-08-25T09:25:27.762Z,84.38
2018-08-25T09:26:27.765Z,84.48
2018-08-25T09:27:27.869Z,83.71
2018-08-25T09:28:27.753Z,84.38
2018-08-25T09:29:27.776Z,84.19
2018-08-25T09:30:27.759Z,84.77
2018-08-25T09:31:27.746Z,84.95
2018-08-25T09:32:27.746Z,83.47
2018-08-25T09:33:27.756Z,84.14
2018-08-25T09:34:27.756Z,85.05
2018-08-25T09:35:27.751Z,85.72
2018-08-25T09:36:27.896Z,84.95
2018-08-25T09:37:27.754Z,86.25
2018-08-25T09:38:27.760Z,86.30
2018-08-25T09:39:27.755Z,85.34
2018-08-25T09:40:27.771Z,86.45
2018-08-25T09:41:27.758Z,86.58
2018-08-25T09:42:27.755Z,85.58
2018-08-25T09:43:27.755Z,85.78
2018-08-25T09:44:27.754Z,84.86
2018-08-25T09:45:27.760Z,85.05
2018-08-25T09:46:27.751Z,85.49
2018-08-25T09:47:27.765Z,85.72
2018-08-25T09:48:27.797Z,85.44
2018-08-25T09:49:27.751Z,86.16
2018-08-25T09:50:27.749Z,85.53
2018-08-25T09:51:27.755Z,85.15
2018-08-25T09:52:27.755Z,86.25
2018-08-25T09:53:27.769Z,86.35
2018-08-25T09:54:27.758Z,86.25
2018-08-25T09:55:27.757Z,87.50
2018-08-25T09:56:27.752Z,87.31
2018-08-25T09:57:27.751Z,87.70
2018-08-25T09:58:27.763Z,87.50
2018-08-25T09:59:27.748Z,87.50
2018-08-25T10:00:27.756Z,87.21
2018-08-25T10:01:27.753Z,86.49
2018-08-25T10:02:27.795Z,86.58
2018-08-25T10:03:27.757Z,86.88
2018-08-25T10:04:27.755Z,87.35
2018-08-25T10:05:27.750Z,87.70
2018-08-25T10:06:27.757Z,87.88
2018-08-25T10:07:27.750Z,87.98
2018-08-25T10:08:27.756Z,87.12
2018-08-25T10:09:27.749Z,87.21
2018-08-25T10:10:27.774Z,87.12
2018-08-25T10:11:27.791Z,87.45
2018-08-25T10:12:27.814Z,87.88
2018-08-25T10:13:27.756Z,88.46
2018-08-25T10:14:27.772Z,88.37
2018-08-25T10:15:27.775Z,88.94
2018-08-25T10:16:27.883Z,88.99
2018-08-25T10:17:27.780Z,89.80
2018-08-25T10:18:27.770Z,89.13
2018-08-25T10:19:27.749Z,89.32
2018-08-25T10:20:27.757Z,89.04
2018-08-25T10:21:27.746Z,90.05
2018-08-25T10:22:27.783Z,90.09
2018-08-25T10:23:27.757Z,90.47
2018-08-25T10:24:27.753Z,90.67
2018-08-25T10:25:27.746Z,90.95
2018-08-25T10:26:27.745Z,90.47
2018-08-25T10:27:27.772Z,90.57
2018-08-25T10:28:27.748Z,91.05
2018-08-25T10:29:27.748Z,88.94
2018-08-25T10:30:27.746Z,90.28
2018-08-25T10:31:27.749Z,89.71
2018-08-25T10:32:27.743Z,89.90
2018-08-25T10:33:27.751Z,88.75
2018-08-25T10:34:27.747Z,87.93
2018-08-25T10:35:27.747Z,87.16
2018-08-25T10:36:27.752Z,86.97
2018-08-25T10:37:27.750Z,88.12
2018-08-25T10:38:27.748Z,89.32
2018-08-25T10:39:27.754Z,89.80
2018-08-25T10:40:27.772Z,91.24
2018-08-25T10:41:27.784Z,92.01
2018-08-25T10:42:27.773Z,90.76
2018-08-25T10:43:27.765Z,89.80
2018-08-25T10:44:27.778Z,89.32
2018-08-25T10:45:27.793Z,89.37
2018-08-25T10:46:27.865Z,90.28
2018-08-25T10:47:27.779Z,91.24
2018-08-25T10:48:27.741Z,90.09
2018-08-25T10:49:27.751Z,89.80
2018-08-25T10:50:27.758Z,89.90
2018-08-25T10:51:27.757Z,90.38
2018-08-25T10:52:27.775Z,89.51
2018-08-25T10:53:27.751Z,87.84
2018-08-25T10:54:27.751Z,87.84
2018-08-25T10:55:27.742Z,89.23
2018-08-25T10:56:27.748Z,91.24
2018-08-25T10:57:27.745Z,91.77
2018-08-25T10:58:27.753Z,91.43
2018-08-25T10:59:27.747Z,90.09
2018-08-25T11:00:27.831Z,89.80
2018-08-25T11:01:27.747Z,90.00
2018-08-25T11:02:27.747Z,87.93
2018-08-25T11:03:27.737Z,88.51
2018-08-25T11:04:27.740Z,88.89
2018-08-25T11:05:27.745Z,89.08
2018-08-25T11:06:27.743Z,87.84
2018-08-25T11:07:27.739Z,88.31
2018-08-25T11:08:27.741Z,89.85
2018-08-25T11:09:27.742Z,90.76
2018-08-25T11:10:27.740Z,90.47
2018-08-25T11:11:27.734Z,89.80
2018-08-25T11:12:27.746Z,89.37
2018-08-25T11:13:27.737Z,88.89
2018-08-25T11:14:27.738Z,87.74
2018-08-25T11:15:27.741Z,87.55
2018-08-25T11:16:27.788Z,87.35
2018-08-25T11:17:27.741Z,87.40
2018-08-25T11:18:27.740Z,86.78
2018-08-25T11:19:27.745Z,87.26
2018-08-25T11:20:27.740Z,87.35
2018-08-25T11:21:27.743Z,87.64
2018-08-25T11:22:27.745Z,87.55
2018-08-25T11:23:27.740Z,86.54
2018-08-25T11:24:27.742Z,86.44
2018-08-25T11:25:27.742Z,86.44
2018-08-25T11:26:27.748Z,86.34
2018-08-25T11:27:27.747Z,86.49
2018-08-25T11:28:27.747Z,86.40
2018-08-25T11:29:27.743Z,86.11
2018-08-25T11:30:27.741Z,85.34
2018-08-25T11:31:27.817Z,86.01
2018-08-25T11:32:27.746Z,86.11
2018-08-25T11:33:27.748Z,86.40
2018-08-25T11:34:27.745Z,85.53
2018-08-25T11:35:27.747Z,85.63
2018-08-25T11:36:27.748Z,84.77
2018-08-25T11:37:27.824Z,83.75
2018-08-25T11:38:27.763Z,83.71
2018-08-25T11:39:27.750Z,84.09
2018-08-25T11:40:27.745Z,84.86
2018-08-25T11:41:27.753Z,86.16
2018-08-25T11:42:27.749Z,86.25
2018-08-25T11:43:27.752Z,86.49
2018-08-25T11:44:27.750Z,85.28
2018-08-25T11:45:27.751Z,85.53
2018-08-25T11:46:27.750Z,86.49
2018-08-25T11:47:27.747Z,86.78
2018-08-25T11:48:27.750Z,86.30
2018-08-25T11:49:27.751Z,86.01
2018-08-25T11:50:27.752Z,86.21
2018-08-25T11:51:27.749Z,86.49
2018-08-25T11:52:27.757Z,87.74
2018-08-25T11:53:27.749Z,87.79
2018-08-25T11:54:27.751Z,87.74
2018-08-25T11:55:27.753Z,88.22
2018-08-25T11:56:27.755Z,87.45
2018-08-25T11:57:27.752Z,86.63
2018-08-25T11:58:27.752Z,86.05
2018-08-25T11:59:27.754Z,85.48
2018-08-25T12:00:27.759Z,85.58
2018-08-25T12:01:27.754Z,86.82
2018-08-25T12:02:27.947Z,86.44
2018-08-25T12:03:27.766Z,87.11
2018-08-25T12:04:27.756Z,86.25
2018-08-25T12:05:27.753Z,86.63
2018-08-25T12:06:27.756Z,86.63
2018-08-25T12:07:27.756Z,87.21
2018-08-25T12:08:27.754Z,86.92
2018-08-25T12:09:27.815Z,87.49
2018-08-25T12:10:27.756Z,87.98
2018-08-25T12:11:27.758Z,87.98
2018-08-25T12:12:27.762Z,87.11
2018-08-25T12:13:27.760Z,87.30
2018-08-25T12:14:27.758Z,87.11
2018-08-25T12:15:27.759Z,87.88
2018-08-25T12:16:27.824Z,87.98
2018-08-25T12:17:27.764Z,86.92
2018-08-25T12:18:27.763Z,87.68
2018-08-25T12:19:27.766Z,88.55
2018-08-25T12:20:27.766Z,89.03
2018-08-25T12:21:27.768Z,88.65
2018-08-25T12:22:27.780Z,87.74
2018-08-25T12:23:27.769Z,88.31
2018-08-25T12:24:27.771Z,87.55
2018-08-25T12:25:27.772Z,86.54
2018-08-25T12:26:27.825Z,86.68
2018-08-25T12:27:27.771Z,86.54
2018-08-25T12:28:27.773Z,86.54
2018-08-25T12:29:27.772Z,86.15
2018-08-25T12:30:27.816Z,85.67
2018-08-25T12:31:27.774Z,86.68
2018-08-25T12:32:27.775Z,86.15
2018-08-25T12:33:27.816Z,86.25
2018-08-25T12:34:27.787Z,84.91
2018-08-25T12:35:27.777Z,86.63
2018-08-25T12:36:27.795Z,85.67
2018-08-25T12:37:27.781Z,86.34
2018-08-25T12:38:27.782Z,86.25
2018-08-25T12:39:27.821Z,86.30
2018-08-25T12:40:27.777Z,86.21
2018-08-25T12:41:27.788Z,86.49
2018-08-25T12:42:27.783Z,86.82
2018-08-25T12:43:27.848Z,86.21
2018-08-25T12:44:27.781Z,86.25
2018-08-25T12:45:27.785Z,86.25
2018-08-25T12:46:27.790Z,85.77
2018-08-25T12:47:27.802Z,85.48
2018-08-25T12:48:27.783Z,85.96
2018-08-25T12:49:27.791Z,86.25
2018-08-25T12:50:27.790Z,86.25
2018-08-25T12:51:27.792Z,86.63
2018-08-25T12:52:27.785Z,86.54
2018-08-25T12:53:27.824Z,86.54
2018-08-25T12:54:27.796Z,86.25
2018-08-25T12:55:27.920Z,86.44
2018-08-25T12:56:27.802Z,86.54
2018-08-25T12:57:27.792Z,85.42
2018-08-25T12:58:27.796Z,85.81
2018-08-25T12:59:27.800Z,85.42
2018-08-25T13:00:27.794Z,86.34
2018-08-25T13:01:27.796Z,86.34
2018-08-25T13:02:27.793Z,85.28
2018-08-25T13:03:27.835Z,85.38
2018-08-25T13:04:27.812Z,85.28
2018-08-25T13:05:27.803Z,85.00
2018-08-25T13:06:27.797Z,85.28
2018-08-25T13:07:27.820Z,85.48
2018-08-25T13:08:27.800Z,84.91
2018-08-25T13:09:27.804Z,84.81